South Ashburnham, Massachusetts
Current Conditions -  °F | °C
As of 11:52 PM on Friday 24 Oct 2014 (Local Time) from KAFN Reporting Station
Overcast Overcast  
Wind Chill: 45°   Ceiling: 5500
Heat Index: 47°   Visibility: 10mi
Dew Point: 39°   Wind: 5mph
Humidity: 74%   Direction: NA
Pressure: 29.76"   Gusts: NA
Location:  42.659°N, 71.9245°W
Report Text: KAFN 250352Z AUTO VRB04KT 10SM OVC055 08/04 A2976 RMK AO2 SLP088 T00830039
Loading
Personal Weather Stations






























Interactive Weather Map
Tropical Storm Tracking
New forecast layout! Learn more

10-Day Weather Forecast

Advertisements
Track Severe Weather on mobile